Aeroporto :
LOGIN :

Iscrizione | Disclaimer

   EN    FR    IT 

 










Sommario :    VFR   VFR Marginale   IFR   IFR Intensivo   IFR Molto Intensivo
Visibilità : 
Base nubi : 
>= 8 km
>= 3000ft
5 / 8 km
1000 / 3000 ft
1500m / 5 km
500 / 1000 ft
800 / 1500m
200 / 500 ft
< 800m
< 200 ft
Simboli :   Temporali  Nebbia  Neve Forte  Precipitazioni Forti  Vento > 20 kt
SIGMETs :   Varie  Temporali  Ghiacco  Turbolenza  Onda orograficha  Ceneri Vulcaniche






- Altitudine del aeroporto : 56 ft
- Codice IATA : ILY


EGPI - Islay

ULTIMO METAR :
  • 280150Z AUTO 14008KT 110V170 9999 OVC046/// 11/09 Q1034

METARs OBSOLETI :
  • 280120Z AUTO 14006KT 120V180 9999 BKN046/// 11/09 Q1034
  • 280050Z AUTO 15005KT 110V180 9999 SCT046/// 11/08 Q1035
  • 280020Z AUTO 13009KT 9999 NCD 11/08 Q1035
  • 272350Z AUTO 14007KT 110V170 9999 NCD 11/07 Q1035
  • 272320Z AUTO 13011KT 9999 NCD 11/08 Q1035

TAF TAF EGPI
Valido dal 27 a 21 ore il 28 a 06 ore UTC


272004Z 2721/2806 15009KT 9999 FEW020
PROB40 2721/2806 6000
PROB30
TEMPO 2721/2806 4000 RADZ BR BKN009



MetMap, La meteo Aeronautica in un colpo d'occhio ! - Copyright ORBIFLY Dicembre 2007 - Disclaimer

ORBIFLY MET'MAP TEAM :

Programmazione e sviluppo : Alexandra Zaïnal
Concezione : Baudouin d'Aumeries
Aiuto per la programmazione : Marc-Olivier Méhu
Supporto tecnico e logistico : Manuel Goepfert
Aiuto per la traduzione : Arnaldo La Scala

Contatto : metmap@orbifly.com




FONTI E CREDITI :

   NOAA